Time;durP1;ratioP1;P1;durP2;ratioP2;P2;SDS_P1;SDS_P2;PMS_P1;PMS_P2;Temp;Humidity;BMP_temperature;BMP_pressure;BME280_temperature;BME280_humidity;BME280_pressure;Samples;Min_cycle;Max_cycle;Signal;HPM_P1;HPM_P2
2021/05/24 00:00:45;;;;;;;7.97;2.20;;;;;;;8.37;71.78;99196.78;5052933;28;20037;-59
2021/05/24 00:03:10;;;;;;;3.45;1.90;;;;;;;8.33;72.06;99195.59;5053243;28;20481;-59
2021/05/24 00:05:38;;;;;;;4.95;2.17;;;;;;;8.36;72.01;99201.31;5052735;28;20079;-59
2021/05/24 00:08:04;;;;;;;4.57;2.25;;;;;;;8.28;72.30;99198.13;5053223;28;20115;-59
2021/05/24 00:10:31;;;;;;;4.85;2.00;;;;;;;8.33;72.32;99196.41;5034945;28;20115;-59
2021/05/24 00:13:00;;;;;;;6.18;2.05;;;;;;;8.35;72.03;99196.19;5053107;28;20477;-59
2021/05/24 00:15:28;;;;;;;6.47;2.00;;;;;;;8.39;71.98;99190.19;5052708;28;20037;-59
2021/05/24 00:17:53;;;;;;;8.85;2.40;;;;;;;8.36;72.16;99176.44;5052941;28;20044;-59
2021/05/24 00:20:22;;;;;;;5.18;2.13;;;;;;;8.38;71.88;99175.16;5052434;28;20024;-59
2021/05/24 00:22:47;;;;;;;3.45;1.95;;;;;;;8.49;71.52;99170.13;5055517;28;20032;-59
2021/05/24 00:25:13;;;;;;;4.13;2.10;;;;;;;8.47;71.59;99175.69;5052615;28;20017;-59
2021/05/24 00:27:39;;;;;;;3.45;1.90;;;;;;;8.42;72.04;99172.91;5052821;28;20032;-59
2021/05/24 00:30:05;;;;;;;4.65;2.30;;;;;;;8.47;71.90;99174.88;5052488;28;20052;-59
2021/05/24 00:32:31;;;;;;;3.40;2.15;;;;;;;8.54;71.61;99176.41;5034848;28;20090;-59
2021/05/24 00:34:56;;;;;;;5.60;2.10;;;;;;;8.52;71.53;99167.81;5052979;28;20370;-59
2021/05/24 00:37:22;;;;;;;4.05;2.05;;;;;;;8.53;71.58;99157.94;5052417;28;20063;-59
2021/05/24 00:39:47;;;;;;;6.88;2.25;;;;;;;8.51;71.52;99158.19;5035091;28;20029;-59
2021/05/24 00:42:13;;;;;;;3.85;1.85;;;;;;;8.45;71.98;99159.06;5034512;28;20026;-59
2021/05/24 00:44:38;;;;;;;3.67;1.85;;;;;;;8.53;71.57;99156.06;5052651;28;20017;-59
2021/05/24 00:47:04;;;;;;;3.28;1.90;;;;;;;8.41;72.05;99155.22;5034445;28;20048;-59
2021/05/24 00:49:29;;;;;;;5.13;2.20;;;;;;;8.42;72.10;99151.53;5052755;28;20462;-59
2021/05/24 00:51:55;;;;;;;6.88;2.00;;;;;;;8.31;72.56;99155.78;5056293;28;20045;-59
2021/05/24 00:54:21;;;;;;;5.03;2.00;;;;;;;8.37;72.10;99151.38;5056916;28;20025;-60
2021/05/24 00:56:47;;;;;;;3.80;2.03;;;;;;;8.36;72.31;99155.06;5056383;28;20604;-59
2021/05/24 00:59:12;;;;;;;5.22;2.20;;;;;;;8.13;73.03;99142.50;5038841;28;20028;-60
2021/05/24 01:01:37;;;;;;;3.78;1.98;;;;;;;8.21;73.06;99144.81;5038579;28;20159;-59
2021/05/24 01:04:03;;;;;;;6.13;1.98;;;;;;;8.06;73.31;99137.25;5056788;28;20024;-59
2021/05/24 01:06:28;;;;;;;4.30;2.05;;;;;;;7.89;74.03;99142.44;5056320;28;20067;-59
2021/05/24 01:08:54;;;;;;;5.35;1.95;;;;;;;7.74;74.13;99140.19;5056651;28;20044;-59
2021/05/24 01:11:22;;;;;;;3.67;2.00;;;;;;;7.60;75.00;99133.38;5055901;28;20041;-59
2021/05/24 01:13:48;;;;;;;3.53;1.90;;;;;;;7.50;75.86;99141.91;5056471;28;20498;-59
2021/05/24 01:16:13;;;;;;;6.22;2.20;;;;;;;7.51;75.67;99142.72;5038081;28;20053;-59
2021/05/24 01:18:39;;;;;;;4.30;1.90;;;;;;;7.42;75.56;99130.75;5056408;28;20700;-59
2021/05/24 01:21:13;;;;;;;4.82;2.00;;;;;;;7.31;76.58;99134.97;5056127;28;20044;-60
2021/05/24 01:23:43;;;;;;;4.20;2.17;;;;;;;7.46;76.11;99132.75;5056363;28;20086;-59
2021/05/24 01:26:08;;;;;;;5.03;2.10;;;;;;;7.61;75.63;99124.31;5055747;28;20463;-59
2021/05/24 01:28:33;;;;;;;3.90;1.83;;;;;;;7.73;75.06;99127.06;5056327;28;20100;-59
2021/05/24 01:30:59;;;;;;;4.57;1.95;;;;;;;7.68;75.20;99124.25;5037666;28;20041;-59
2021/05/24 01:33:25;;;;;;;3.20;2.22;;;;;;;7.75;75.31;99124.97;5056032;28;20032;-59
2021/05/24 01:35:50;;;;;;;4.78;1.92;;;;;;;7.74;74.66;99120.69;5055783;28;20091;-59
2021/05/24 01:38:16;;;;;;;3.85;1.80;;;;;;;7.57;75.17;99113.31;5038066;28;20017;-59
2021/05/24 01:40:43;;;;;;;4.25;2.40;;;;;;;7.37;76.59;99118.09;5055341;28;20033;-59
2021/05/24 01:43:08;;;;;;;4.40;2.30;;;;;;;7.03;76.86;99112.31;5056112;28;20025;-59
2021/05/24 01:45:34;;;;;;;3.72;2.22;;;;;;;7.00;76.31;99112.78;5037717;28;20621;-59
2021/05/24 01:48:00;;;;;;;5.50;2.00;;;;;;;7.01;76.80;99108.25;5038133;28;20028;-59
2021/05/24 01:50:25;;;;;;;6.10;2.22;;;;;;;6.82;77.40;99105.59;5055296;28;20037;-59
2021/05/24 01:52:51;;;;;;;4.85;2.25;;;;;;;6.72;77.44;99094.63;5037775;28;20055;-59
2021/05/24 01:55:16;;;;;;;6.60;2.47;;;;;;;6.51;77.89;99093.16;5055096;28;20374;-59
2021/05/24 01:57:42;;;;;;;5.57;2.40;;;;;;;6.33;78.85;99093.94;5038001;28;20021;-59
2021/05/24 02:00:12;;;;;;;4.13;2.47;;;;;;;6.14;79.30;99098.44;5055061;28;20108;-59
2021/05/24 02:02:41;;;;;;;4.13;2.40;;;;;;;5.97;80.71;99092.00;5055650;28;20033;-59
2021/05/24 02:05:08;;;;;;;4.57;2.65;;;;;;;5.84;80.70;99088.38;5055016;28;20119;-59
2021/05/24 02:07:34;;;;;;;6.50;2.78;;;;;;;5.79;81.03;99084.69;5055409;28;20037;-59
2021/05/24 02:09:59;;;;;;;7.57;2.70;;;;;;;5.73;80.29;99083.72;5055347;28;20025;-59
2021/05/24 02:12:25;;;;;;;4.05;2.60;;;;;;;5.58;81.88;99088.53;5054717;28;20131;-59
2021/05/24 02:14:51;;;;;;;5.90;2.70;;;;;;;5.47;82.75;99083.91;5055295;28;20493;-59
2021/05/24 02:17:16;;;;;;;4.88;2.60;;;;;;;5.57;82.40;99078.94;5036787;28;20113;-59
2021/05/24 02:19:42;;;;;;;3.38;2.28;;;;;;;5.54;81.68;99079.34;5055266;28;20401;-59
2021/05/24 02:22:07;;;;;;;4.20;2.50;;;;;;;5.46;82.26;99079.59;5037051;28;20518;-59
2021/05/24 02:24:33;;;;;;;4.90;3.03;;;;;;;5.33;82.07;99078.63;5055119;28;20124;-59
2021/05/24 02:26:58;;;;;;;4.38;2.70;;;;;;;5.10;83.51;99073.81;5054599;28;20041;-59
2021/05/24 02:29:24;;;;;;;4.28;2.70;;;;;;;5.01;84.59;99063.66;5057633;28;20025;-59
2021/05/24 02:31:49;;;;;;;4.18;2.67;;;;;;;5.06;84.72;99069.13;5054488;28;20045;-59
2021/05/24 02:34:14;;;;;;;5.00;2.88;;;;;;;5.06;84.56;99064.63;5054991;28;20029;-59
2021/05/24 02:36:40;;;;;;;13.23;3.05;;;;;;;5.10;84.30;99063.19;5054299;28;20384;-59
2021/05/24 02:39:07;;;;;;;6.50;2.88;;;;;;;5.13;85.08;99069.94;5054722;28;20032;-59
2021/05/24 02:41:33;;;;;;;6.07;2.78;;;;;;;5.19;84.12;99069.91;5054213;28;20124;-59
2021/05/24 02:43:58;;;;;;;4.50;2.60;;;;;;;5.24;83.71;99066.63;5054726;28;20086;-59
2021/05/24 02:46:24;;;;;;;5.60;2.97;;;;;;;5.19;84.11;99066.41;5054338;28;20041;-59
2021/05/24 02:48:49;;;;;;;6.68;3.00;;;;;;;5.18;84.43;99064.81;5036843;28;20108;-59
2021/05/24 02:51:14;;;;;;;4.32;2.90;;;;;;;5.11;84.24;99061.34;5054080;28;20478;-59
2021/05/24 02:53:40;;;;;;;4.57;2.95;;;;;;;5.12;84.74;99060.34;5054375;28;20371;-59
2021/05/24 02:56:05;;;;;;;4.60;2.58;;;;;;;5.10;84.88;99060.53;5054110;28;20037;-59
2021/05/24 02:58:31;;;;;;;6.57;2.97;;;;;;;5.13;84.76;99070.75;5036701;28;20029;-59
2021/05/24 03:00:56;;;;;;;6.18;2.80;;;;;;;5.14;85.12;99064.41;5053872;28;20033;-59
2021/05/24 03:03:23;;;;;;;8.35;3.15;;;;;;;5.21;84.96;99060.91;5054388;28;20029;-59
2021/05/24 03:05:49;;;;;;;4.68;3.00;;;;;;;5.19;84.76;99074.38;5053925;28;20032;-59
2021/05/24 03:08:15;;;;;;;6.65;3.08;;;;;;;5.36;84.50;99064.91;5054082;28;20482;-59
2021/05/24 03:10:41;;;;;;;6.85;2.80;;;;;;;5.28;84.54;99065.16;5053794;28;20033;-59
2021/05/24 03:13:06;;;;;;;6.88;2.88;;;;;;;5.19;84.52;99063.75;5053822;28;20033;-59
2021/05/24 03:15:32;;;;;;;5.43;2.83;;;;;;;5.28;86.35;99062.50;5053823;28;20044;-59
2021/05/24 03:17:57;;;;;;;8.38;3.00;;;;;;;5.29;85.16;99064.16;5054011;28;20433;-58
2021/05/24 03:20:23;;;;;;;4.22;2.88;;;;;;;5.28;84.29;99067.81;5053604;28;20493;-59
2021/05/24 03:22:48;;;;;;;4.88;2.95;;;;;;;5.25;84.23;99067.44;5054013;28;20025;-59
2021/05/24 03:25:14;;;;;;;6.40;3.10;;;;;;;5.27;84.80;99060.88;5036076;28;20071;-59
2021/05/24 03:27:40;;;;;;;7.20;2.78;;;;;;;5.28;84.37;99061.69;5054073;28;20021;-59
2021/05/24 03:30:06;;;;;;;5.90;2.75;;;;;;;5.18;84.38;99056.84;5035619;28;20421;-60
2021/05/24 03:32:32;;;;;;;4.63;2.90;;;;;;;5.13;82.88;99054.81;5053864;28;20032;-59
2021/05/24 03:34:57;;;;;;;5.18;2.60;;;;;;;5.09;84.31;99053.63;5053844;28;20029;-59
2021/05/24 03:37:23;;;;;;;5.72;2.85;;;;;;;4.97;84.36;99061.41;5035496;28;20033;-59
2021/05/24 03:39:48;;;;;;;6.32;3.40;;;;;;;5.36;86.34;99058.78;5053655;28;20029;-59
2021/05/24 03:42:13;;;;;;;8.95;3.42;;;;;;;5.51;83.56;99061.16;5053096;28;20099;-59
2021/05/24 03:44:42;;;;;;;7.55;3.30;;;;;;;5.35;82.25;99050.00;5053812;28;20017;-59
2021/05/24 03:47:08;;;;;;;4.60;2.78;;;;;;;5.26;82.26;99059.25;5053073;28;20124;-59
2021/05/24 03:49:33;;;;;;;7.45;3.10;;;;;;;5.14;82.79;99052.94;5053665;28;20385;-63
2021/05/24 03:51:59;;;;;;;4.95;2.70;;;;;;;5.07;83.13;99047.69;5052872;28;20055;-58
2021/05/24 03:54:24;;;;;;;6.57;2.88;;;;;;;5.13;83.46;99054.00;5053512;28;20040;-58
2021/05/24 03:56:50;;;;;;;4.22;2.63;;;;;;;5.13;82.34;99051.34;5035454;28;20037;-60
2021/05/24 03:59:15;;;;;;;7.07;2.63;;;;;;;5.05;82.02;99035.66;5053616;28;20029;-59
2021/05/24 04:01:41;;;;;;;7.50;2.80;;;;;;;4.96;81.28;99046.47;5052956;28;20036;-59
2021/05/24 04:04:06;;;;;;;4.68;2.60;;;;;;;4.79;82.71;99047.16;5053567;28;20036;-59
2021/05/24 04:06:32;;;;;;;4.00;2.80;;;;;;;4.77;84.54;99044.75;5052621;28;20045;-59
2021/05/24 04:08:59;;;;;;;6.53;3.17;;;;;;;4.99;83.92;99042.59;5053259;28;20134;-59
2021/05/24 04:11:24;;;;;;;6.10;3.35;;;;;;;5.11;83.88;99035.59;5035075;28;20044;-59
2021/05/24 04:13:52;;;;;;;7.85;3.30;;;;;;;5.22;83.71;99028.81;5053189;28;20032;-58
2021/05/24 04:16:18;;;;;;;5.68;3.30;;;;;;;5.32;83.56;99025.72;5052597;28;20106;-60
2021/05/24 04:18:47;;;;;;;6.65;3.03;;;;;;;5.75;81.92;99031.13;5035393;28;20033;-59
2021/05/24 04:21:13;;;;;;;4.40;2.70;;;;;;;6.21;79.29;99018.50;5035557;28;20037;-60
2021/05/24 04:23:39;;;;;;;5.45;2.60;;;;;;;6.01;77.24;99024.00;5053099;28;20040;-58
2021/05/24 04:26:04;;;;;;;4.20;2.53;;;;;;;5.53;79.49;99019.22;5051792;28;20041;-59
2021/05/24 04:28:30;;;;;;;4.85;2.67;;;;;;;5.05;83.87;99014.41;5052861;28;20048;-60
2021/05/24 04:30:55;;;;;;;6.30;2.47;;;;;;;5.94;80.00;99009.94;5052437;28;20099;-61
2021/05/24 04:33:21;;;;;;;5.90;2.03;;;;;;;6.23;79.39;99001.28;5034982;28;20029;-60
2021/05/24 04:35:46;;;;;;;6.38;2.60;;;;;;;7.22;75.92;99003.84;5054797;28;20037;-59
2021/05/24 04:38:11;;;;;;;4.90;2.40;;;;;;;7.82;70.30;99008.31;5052974;28;20067;-59
2021/05/24 04:40:37;;;;;;;3.42;2.20;;;;;;;9.14;64.79;99014.94;5052150;28;20091;-59
2021/05/24 04:43:02;;;;;;;5.97;2.50;;;;;;;8.16;67.04;99011.22;5035001;28;20025;-60
2021/05/24 04:45:28;;;;;;;6.03;2.40;;;;;;;8.90;67.51;99013.38;5034518;28;20382;-59
2021/05/24 04:47:53;;;;;;;4.53;2.60;;;;;;;10.86;59.68;99003.75;5034931;28;20033;-59
2021/05/24 04:50:19;;;;;;;5.00;2.40;;;;;;;12.84;53.30;99000.28;5052215;28;20017;-59
2021/05/24 04:52:44;;;;;;;5.25;2.53;;;;;;;15.96;44.56;99004.31;5052868;28;20051;-58
2021/05/24 04:55:10;;;;;;;4.65;2.20;;;;;;;16.40;43.11;99006.09;5052267;28;20032;-58
2021/05/24 04:57:36;;;;;;;3.88;2.20;;;;;;;16.24;42.84;99007.31;5052588;28;20534;-58
2021/05/24 05:00:03;;;;;;;2.85;2.00;;;;;;;16.51;42.00;99007.59;5052272;28;20023;-58
2021/05/24 05:02:29;;;;;;;5.65;2.33;;;;;;;13.26;51.31;98996.66;5034778;28;20405;-58
2021/05/24 05:04:57;;;;;;;6.15;2.50;;;;;;;15.48;46.44;98998.72;5052515;28;20075;-58
2021/05/24 05:07:23;;;;;;;8.63;2.40;;;;;;;17.04;41.30;99006.72;5052082;28;20056;-59
2021/05/24 05:09:48;;;;;;;5.32;2.60;;;;;;;16.78;41.99;98998.13;5052778;28;20099;-61
2021/05/24 05:12:14;;;;;;;4.82;2.70;;;;;;;18.68;37.65;98994.09;5052010;28;20041;-59
2021/05/24 05:14:39;;;;;;;6.80;2.35;;;;;;;17.60;40.03;98986.19;5052565;28;20103;-60
2021/05/24 05:17:05;;;;;;;6.18;2.60;;;;;;;17.23;40.95;98990.50;5051749;28;20057;-59
2021/05/24 05:19:30;;;;;;;5.18;2.47;;;;;;;17.67;40.38;98989.31;5052928;28;20021;-60
2021/05/24 05:21:55;;;;;;;7.03;2.75;;;;;;;18.37;38.76;98988.44;5034106;28;20041;-60
2021/05/24 05:24:21;;;;;;;5.43;2.70;;;;;;;19.71;36.25;98987.28;5052437;28;20029;-60
2021/05/24 05:26:46;;;;;;;5.22;2.20;;;;;;;20.11;35.34;98997.47;5052126;28;20041;-61
2021/05/24 05:29:12;;;;;;;4.63;2.28;;;;;;;20.58;34.78;99001.44;5052463;28;20424;-60
2021/05/24 05:31:37;;;;;;;3.38;2.03;;;;;;;20.33;35.26;98994.72;5051931;28;20048;-60
2021/05/24 05:34:03;;;;;;;3.88;2.10;;;;;;;20.62;34.06;98991.53;5034587;28;20032;-60
2021/05/24 05:36:29;;;;;;;4.43;2.30;;;;;;;17.88;39.34;98985.22;5053558;28;20045;-60
2021/05/24 05:38:54;;;;;;;3.65;2.25;;;;;;;18.85;38.11;98982.66;5056224;28;20025;-60
2021/05/24 05:41:20;;;;;;;4.13;2.22;;;;;;;17.39;41.67;98989.19;5055620;28;20049;-61
2021/05/24 05:43:45;;;;;;;4.55;2.30;;;;;;;19.15;38.00;98973.06;5056129;28;20025;-59
2021/05/24 05:46:11;;;;;;;8.38;2.63;;;;;;;19.67;36.29;98971.88;5055491;28;20033;-59
2021/05/24 05:48:36;;;;;;;5.68;2.40;;;;;;;20.68;34.35;98979.38;5055980;28;20484;-59
2021/05/24 05:51:03;;;;;;;3.50;2.00;;;;;;;15.18;47.18;98976.19;5037644;28;20459;-59
2021/05/24 05:53:29;;;;;;;5.03;2.10;;;;;;;16.83;43.86;98983.72;5055994;28;20048;-59
2021/05/24 05:55:54;;;;;;;4.10;2.00;;;;;;;17.50;41.86;98986.31;5037600;28;20486;-59
2021/05/24 05:58:20;;;;;;;4.03;2.15;;;;;;;14.65;49.13;98967.78;5055808;28;20462;-59
2021/05/24 06:00:45;;;;;;;4.82;2.25;;;;;;;18.58;40.03;98975.28;5055277;28;20067;-59
2021/05/24 06:03:11;;;;;;;5.22;2.20;;;;;;;19.63;38.05;98977.13;5021460;28;20036;-60
2021/05/24 06:05:37;;;;;;;4.50;2.20;;;;;;;21.81;33.73;98981.44;5055328;28;20044;-59
2021/05/24 06:08:03;;;;;;;3.65;2.20;;;;;;;17.10;42.54;98964.97;5055496;28;20114;-60
2021/05/24 06:10:28;;;;;;;3.70;1.90;;;;;;;19.29;38.55;98961.34;5055014;28;20048;-59
2021/05/24 06:12:54;;;;;;;5.00;2.10;;;;;;;22.51;32.01;98959.44;5055519;28;20063;-60
2021/05/24 06:15:19;;;;;;;3.70;2.08;;;;;;;21.78;33.81;98951.28;5055253;28;20720;-59
2021/05/24 06:17:45;;;;;;;3.95;1.70;;;;;;;18.46;39.19;98937.00;5055173;28;20041;-60
2021/05/24 06:20:11;;;;;;;3.95;1.30;;;;;;;18.38;39.35;98937.69;5054976;28;20470;-59
2021/05/24 06:22:38;;;;;;;4.35;1.40;;;;;;;17.41;40.95;98938.22;5054601;28;20037;-59
2021/05/24 06:25:04;;;;;;;3.38;1.50;;;;;;;18.83;38.82;98929.78;5054578;28;20021;-59
2021/05/24 06:27:29;;;;;;;3.90;1.70;;;;;;;16.61;42.83;98923.59;5055036;28;20029;-59
2021/05/24 06:29:55;;;;;;;3.88;1.60;;;;;;;18.00;39.70;98927.81;5055117;28;20050;-59
2021/05/24 06:32:20;;;;;;;4.45;1.52;;;;;;;19.28;36.88;98921.72;5054378;28;20045;-59
2021/05/24 06:34:45;;;;;;;4.43;1.52;;;;;;;17.64;39.66;98938.41;5055177;28;20021;-59
2021/05/24 06:37:11;;;;;;;5.00;1.65;;;;;;;20.33;37.21;98934.84;5054590;28;20394;-59
2021/05/24 06:39:36;;;;;;;2.83;1.50;;;;;;;20.96;35.02;98935.53;5054934;28;20029;-59
2021/05/24 06:42:02;;;;;;;5.15;1.60;;;;;;;21.43;32.54;98943.13;5054420;28;20048;-59
2021/05/24 06:44:27;;;;;;;2.38;1.30;;;;;;;21.38;33.21;98929.63;5037042;28;20041;-59
2021/05/24 06:46:53;;;;;;;3.80;1.80;;;;;;;19.14;39.02;98922.53;5056832;28;20041;-59
2021/05/24 06:49:18;;;;;;;3.47;1.58;;;;;;;20.02;36.52;98913.91;5054227;28;20024;-59
2021/05/24 06:51:44;;;;;;;5.07;1.58;;;;;;;21.19;33.97;98919.88;5053963;28;20044;-59
2021/05/24 06:54:09;;;;;;;3.35;1.40;;;;;;;21.97;32.23;98910.81;5054655;28;20410;-59
2021/05/24 06:56:35;;;;;;;3.55;1.40;;;;;;;19.23;38.32;98905.53;5054265;28;20122;-59
2021/05/24 06:59:00;;;;;;;3.47;1.50;;;;;;;18.65;38.36;98905.13;5054603;28;20378;-59
2021/05/24 07:01:26;;;;;;;2.80;1.40;;;;;;;19.44;37.56;98908.56;5054011;28;20044;-59
2021/05/24 07:03:51;;;;;;;2.78;1.30;;;;;;;19.04;38.39;98906.47;5054864;28;20024;-59
2021/05/24 07:06:17;;;;;;;3.15;1.40;;;;;;;18.29;39.74;98908.53;5054076;28;20487;-59
2021/05/24 07:08:42;;;;;;;4.10;1.50;;;;;;;20.14;35.24;98901.63;5054351;28;20031;-59
2021/05/24 07:11:08;;;;;;;2.90;1.30;;;;;;;20.67;34.90;98901.53;5053975;28;20052;-59
2021/05/24 07:13:33;;;;;;;1.83;1.10;;;;;;;20.03;35.61;98901.91;5054416;28;20025;-59
2021/05/24 07:15:58;;;;;;;3.05;1.50;;;;;;;18.93;37.49;98900.47;5053687;28;20406;-59
2021/05/24 07:18:24;;;;;;;3.72;1.30;;;;;;;19.25;37.46;98892.44;5054293;28;20519;-59
2021/05/24 07:20:49;;;;;;;4.63;1.35;;;;;;;21.89;32.92;98889.78;5053907;28;20565;-59
2021/05/24 07:23:15;;;;;;;3.40;1.40;;;;;;;18.50;38.35;98887.25;5054593;28;20029;-59
2021/05/24 07:25:41;;;;;;;5.78;1.42;;;;;;;20.54;35.44;98888.00;5053601;28;20029;-59
2021/05/24 07:28:06;;;;;;;2.60;1.40;;;;;;;20.57;34.22;98881.97;5054166;28;20032;-61
2021/05/24 07:30:32;;;;;;;3.67;1.52;;;;;;;20.26;35.74;98883.59;5053413;28;20040;-59
2021/05/24 07:32:57;;;;;;;3.00;1.25;;;;;;;22.14;30.63;98875.28;5054152;28;20029;-60
2021/05/24 07:35:23;;;;;;;5.25;1.60;;;;;;;20.72;33.89;98881.53;5053610;28;20398;-60
2021/05/24 07:37:48;;;;;;;3.20;1.33;;;;;;;22.14;31.61;98879.91;5053883;28;20025;-58
2021/05/24 07:40:14;;;;;;;3.90;1.40;;;;;;;21.57;32.88;98882.97;5053719;28;20021;-58
2021/05/24 07:42:41;;;;;;;5.45;1.30;;;;;;;20.08;35.45;98872.97;5036146;28;20157;-61
2021/05/24 07:45:07;;;;;;;3.10;1.13;;;;;;;21.61;32.08;98868.38;5053427;28;20484;-59
2021/05/24 07:47:33;;;;;;;3.45;1.33;;;;;;;19.59;36.02;98870.13;5036439;28;20021;-59
2021/05/24 07:49:59;;;;;;;3.67;1.33;;;;;;;20.48;34.05;98874.53;5053547;28;20029;-60
2021/05/24 07:52:24;;;;;;;3.78;1.23;;;;;;;20.71;34.26;98863.56;5053277;28;20090;-59
2021/05/24 07:54:50;;;;;;;4.18;1.40;;;;;;;19.64;35.17;98858.31;5053662;28;20032;-59
2021/05/24 07:57:15;;;;;;;2.28;1.20;;;;;;;17.40;40.19;98874.31;5053137;28;20083;-59
2021/05/24 07:59:41;;;;;;;3.50;1.35;;;;;;;19.64;36.07;98877.34;5053256;28;20025;-58
2021/05/24 08:02:07;;;;;;;2.67;1.30;;;;;;;19.27;37.71;98871.19;5053056;28;20049;-59
2021/05/24 08:04:33;;;;;;;2.47;0.98;;;;;;;20.22;34.76;98868.25;5053442;28;20036;-60
2021/05/24 08:06:58;;;;;;;2.97;1.45;;;;;;;18.47;38.49;98870.75;5052981;28;20037;-59
2021/05/24 08:09:23;;;;;;;6.65;1.40;;;;;;;18.95;36.57;98873.81;5053371;28;20391;-59
2021/05/24 08:11:50;;;;;;;3.40;1.25;;;;;;;18.82;36.23;98863.00;5052944;28;20075;-59
2021/05/24 08:14:15;;;;;;;6.00;1.48;;;;;;;17.37;39.19;98872.22;5053272;28;20112;-59
2021/05/24 08:16:44;;;;;;;4.65;1.55;;;;;;;17.29;41.14;98870.16;5052564;28;20049;-59
2021/05/24 08:19:10;;;;;;;3.92;1.45;;;;;;;19.23;36.28;98871.00;5053598;28;20090;-59
2021/05/24 08:21:35;;;;;;;3.67;1.50;;;;;;;18.51;37.74;98859.00;5052799;28;20036;-59
2021/05/24 08:24:01;;;;;;;3.08;1.30;;;;;;;18.97;36.94;98862.66;5053070;28;20036;-61
2021/05/24 08:26:26;;;;;;;6.55;1.75;;;;;;;20.48;34.34;98855.47;5052870;28;20036;-60
2021/05/24 08:28:51;;;;;;;4.13;1.40;;;;;;;19.29;35.09;98853.47;5034957;28;20403;-61
2021/05/24 08:31:17;;;;;;;3.97;1.33;;;;;;;19.61;34.74;98846.94;5034483;28;20037;-61
2021/05/24 08:33:43;;;;;;;2.63;1.20;;;;;;;19.07;36.33;98851.56;5053003;28;20036;-61
2021/05/24 08:36:08;;;;;;;4.18;1.45;;;;;;;20.19;34.70;98857.97;5052446;28;20041;-61
2021/05/24 08:38:34;;;;;;;3.65;1.48;;;;;;;20.52;34.21;98855.66;5052751;28;20021;-61
2021/05/24 08:41:06;;;;;;;4.70;1.48;;;;;;;20.19;33.71;98855.25;5052308;28;20033;-59
2021/05/24 08:43:32;;;;;;;3.92;1.70;;;;;;;19.57;34.69;98846.00;5052888;28;20061;-60
2021/05/24 08:45:58;;;;;;;5.18;1.60;;;;;;;19.55;35.11;98829.19;5034696;28;20045;-61
2021/05/24 08:48:24;;;;;;;1.77;1.25;;;;;;;19.62;34.76;98828.75;5055280;28;20021;-61
2021/05/24 08:50:49;;;;;;;3.40;1.55;;;;;;;18.28;37.45;98831.00;5052408;28;20056;-61
2021/05/24 08:53:15;;;;;;;4.45;1.58;;;;;;;19.39;34.64;98838.81;5034934;28;20029;-61
2021/05/24 08:55:40;;;;;;;9.25;1.50;;;;;;;19.02;35.33;98827.25;5052316;28;20067;-61
2021/05/24 08:58:07;;;;;;;4.40;1.50;;;;;;;20.69;32.95;98827.69;5052526;28;20021;-61
2021/05/24 09:00:33;;;;;;;3.13;1.40;;;;;;;19.10;33.97;98829.22;5052572;28;20098;-61
2021/05/24 09:02:58;;;;;;;3.78;1.50;;;;;;;21.41;31.01;98836.34;5034663;28;20029;-60
2021/05/24 09:05:28;;;;;;;4.53;1.75;;;;;;;21.60;30.55;98834.06;5052096;28;20479;-61
2021/05/24 09:07:55;;;;;;;3.90;1.33;;;;;;;20.07;32.44;98825.09;5052766;28;20025;-60
2021/05/24 09:10:22;;;;;;;4.15;1.52;;;;;;;20.31;32.59;98822.78;5052126;28;20043;-60
2021/05/24 09:12:48;;;;;;;5.28;1.73;;;;;;;20.61;32.76;98820.31;5056649;28;20072;-60
2021/05/24 09:15:15;;;;;;;5.85;1.67;;;;;;;20.19;33.82;98826.13;5056061;28;20029;-60
2021/05/24 09:18:11;;;;;;;3.95;1.20;;;;;;;20.46;32.56;98819.63;5056223;28;20049;-60
2021/05/24 09:20:41;;;;;;;5.82;1.70;;;;;;;19.11;34.99;98809.06;5052275;28;20064;-60
2021/05/24 09:23:21;;;;;;;7.30;1.55;;;;;;;19.41;32.64;98779.53;5056501;28;20032;-60
2021/05/24 09:26:03;;;;;;;2.35;1.30;;;;;;;20.23;32.72;98799.09;5056186;28;20626;-60
2021/05/24 09:28:40;;;;;;;3.70;1.45;;;;;;;20.08;34.35;98796.81;5056437;28;20025;-60
2021/05/24 09:31:15;;;;;;;4.80;1.52;;;;;;;19.02;34.73;98778.34;5055757;28;20044;-61
2021/05/24 09:33:49;;;;;;;4.18;1.20;;;;;;;20.04;33.82;98791.19;5056252;28;20033;-60
2021/05/24 09:36:15;;;;;;;4.20;1.50;;;;;;;20.58;33.25;98782.84;5055830;28;20491;-61
2021/05/24 09:38:42;;;;;;;6.95;2.80;;;;;;;20.50;31.91;98775.44;5056252;28;20116;-61
2021/05/24 09:41:08;;;;;;;5.65;1.95;;;;;;;20.55;31.31;98780.75;5055701;28;20041;-60
2021/05/24 09:43:41;;;;;;;6.13;1.50;;;;;;;20.07;33.46;98770.69;5056176;28;20413;-60
2021/05/24 09:46:11;;;;;;;4.63;1.65;;;;;;;20.62;33.33;98751.94;5038994;28;20044;-61
2021/05/24 09:48:36;;;;;;;3.00;1.15;;;;;;;19.55;35.15;98763.16;5056188;28;20390;-60
2021/05/24 09:51:10;;;;;;;3.38;1.40;;;;;;;19.36;35.08;98760.66;5055433;28;20052;-60
2021/05/24 09:53:36;;;;;;;4.50;1.42;;;;;;;19.18;35.19;98755.13;5055950;28;20024;-60
2021/05/24 09:56:06;;;;;;;5.50;1.73;;;;;;;18.94;34.60;98732.91;5037635;28;20069;-60
2021/05/24 09:58:33;;;;;;;3.50;1.38;;;;;;;18.79;35.99;98747.66;5055888;28;20467;-60
2021/05/24 10:01:13;;;;;;;3.85;1.20;;;;;;;18.72;36.77;98748.09;5055557;28;20099;-60
2021/05/24 10:03:39;;;;;;;8.57;1.90;;;;;;;18.81;36.24;98745.44;5055970;28;20037;-60
2021/05/24 10:06:05;;;;;;;4.72;1.75;;;;;;;19.28;35.54;98739.69;5055460;28;20052;-60
2021/05/24 10:08:31;;;;;;;3.22;1.35;;;;;;;18.79;36.48;98736.81;5055820;28;20029;-60
2021/05/24 10:10:56;;;;;;;3.42;1.55;;;;;;;18.69;37.19;98739.75;5037303;28;20037;-60
2021/05/24 10:13:24;;;;;;;4.80;1.50;;;;;;;18.08;38.22;98740.00;5021641;28;20072;-61
2021/05/24 10:15:54;;;;;;;4.00;1.52;;;;;;;18.32;36.78;98734.34;5021656;28;20037;-59
2021/05/24 10:18:19;;;;;;;;;;;;;;;17.92;37.72;98729.78;5055692;28;20076;-58
2021/05/24 10:20:45;;;;;;;6.25;1.50;;;;;;;17.71;39.75;98743.72;5054842;28;19967;-61
2021/05/24 10:23:10;;;;;;;6.07;1.65;;;;;;;18.27;38.41;98723.59;5019953;28;20478;-59
2021/05/24 10:25:35;;;;;;;5.30;2.17;;;;;;;18.04;38.34;98732.78;5054519;28;20037;-60
2021/05/24 10:28:01;;;;;;;3.15;1.50;;;;;;;17.89;37.93;98737.41;5037749;28;20079;-60
2021/05/24 10:30:26;;;;;;;6.70;1.50;;;;;;;18.14;38.62;98729.84;5020792;28;20391;-60
2021/05/24 10:32:59;;;;;;;3.47;1.80;;;;;;;17.86;39.01;98731.78;5037436;28;20025;-61
2021/05/24 10:35:35;;;;;;;5.93;1.75;;;;;;;17.75;38.96;98731.19;5054515;28;20062;-62
2021/05/24 10:38:45;;;;;;;5.32;1.40;;;;;;;17.66;39.25;98732.97;5037035;28;20496;-60
2021/05/24 10:41:16;;;;;;;5.93;2.03;;;;;;;18.00;39.40;98727.16;5051412;28;20522;-60
2021/05/24 10:43:46;;;;;;;6.07;1.80;;;;;;;18.03;40.05;98734.69;5054967;28;20025;-62
2021/05/24 10:46:28;;;;;;;3.13;1.40;;;;;;;17.46;39.75;98737.69;5056923;28;20445;-60
2021/05/24 10:48:56;;;;;;;4.65;1.67;;;;;;;17.88;38.93;98741.22;5054768;28;20433;-60
2021/05/24 10:51:22;;;;;;;9.57;1.90;;;;;;;17.84;39.70;98745.63;5054325;28;20056;-60
2021/05/24 10:53:49;;;;;;;5.43;1.60;;;;;;;17.51;39.52;98746.81;5037110;28;20094;-60
2021/05/24 10:56:21;;;;;;;7.53;1.80;;;;;;;17.06;39.27;98749.25;5036687;28;20033;-60
2021/05/24 10:58:47;;;;;;;3.67;1.63;;;;;;;16.97;39.96;98747.22;5054679;28;20020;-59
2021/05/24 11:01:12;;;;;;;3.92;1.40;;;;;;;16.94;38.46;98752.41;5020019;28;20033;-60
2021/05/24 11:03:43;;;;;;;3.75;1.52;;;;;;;16.68;38.50;98760.09;5036875;28;20086;-60
2021/05/24 11:06:20;;;;;;;3.95;1.70;;;;;;;16.55;38.84;98764.34;5054071;28;20387;-60
2021/05/24 11:08:50;;;;;;;2.78;1.50;;;;;;;16.46;39.09;98775.00;5037223;28;20037;-59
2021/05/24 11:11:19;;;;;;;7.93;2.00;;;;;;;16.37;39.85;98763.22;5019737;28;20367;-60
2021/05/24 11:13:57;;;;;;;6.47;1.63;;;;;;;16.22;40.53;98771.56;5036708;28;20025;-60
2021/05/24 11:16:23;;;;;;;4.22;1.58;;;;;;;16.12;41.11;98762.47;5053780;28;20056;-60
2021/05/24 11:19:04;;;;;;;4.00;1.63;;;;;;;16.13;42.94;98777.63;5054413;28;20025;-60
2021/05/24 11:21:30;;;;;;;3.17;1.60;;;;;;;16.13;43.64;98780.31;5053754;28;20087;-60
2021/05/24 11:26:26;;;;;;;3.38;1.45;;;;;;;16.21;42.85;98767.25;5053523;28;20033;-59
2021/05/24 11:29:01;;;;;;;;;;;;;;;16.42;42.84;98765.88;5054490;28;20383;-59
2021/05/24 11:31:33;;;;;;;4.25;1.75;;;;;;;16.17;43.80;98781.38;5053508;28;20015;-59
2021/05/24 11:33:59;;;;;;;3.90;1.52;;;;;;;16.03;44.73;98777.75;5053572;28;20474;-59
2021/05/24 11:36:27;;;;;;;3.97;1.85;;;;;;;15.88;45.58;98777.94;5035565;28;20047;-60